Time;durP1;ratioP1;P1;durP2;ratioP2;P2;SDS_P1;SDS_P2;PMS_P1;PMS_P2;Temp;Humidity;BMP_temperature;BMP_pressure;BME280_temperature;BME280_humidity;BME280_pressure;Samples;Min_cycle;Max_cycle;Signal;HPM_P1;HPM_P2
2022/11/08 00:02:21;;;;;;;4.53;2.90;;;;;;;;;;4955594;28;20191;-82
2022/11/08 00:15:37;;;;;;;5.87;3.30;;;;;;;;;;4955439;28;20195;-82
2022/11/08 00:18:41;;;;;;;5.17;2.80;;;;;;;;;;4955352;28;20531;-83
2022/11/08 00:21:45;;;;;;;5.60;3.20;;;;;;;;;;4966353;28;20672;-82
2022/11/08 00:24:50;;;;;;;4.87;3.10;;;;;;;;;;4955222;28;20203;-83
2022/11/08 00:27:54;;;;;;;5.47;3.43;;;;;;;;;;4955814;28;20183;-83
2022/11/08 00:31:03;;;;;;;7.13;3.40;;;;;;;;;;5010015;23;20706;-91
2022/11/08 00:34:08;;;;;;;6.00;3.33;;;;;;;;;;5014923;28;20193;-91
2022/11/08 00:37:11;;;;;;;7.33;3.40;;;;;;;;;;5014999;28;20639;-91
2022/11/08 00:40:16;;;;;;;4.97;3.50;;;;;;;;;;5003806;28;20216;-92
2022/11/08 00:43:20;;;;;;;6.27;3.53;;;;;;;;;;5004397;28;20185;-92
2022/11/08 00:46:24;;;;;;;5.07;3.57;;;;;;;;;;5004159;28;20652;-92
2022/11/08 00:49:28;;;;;;;6.23;3.37;;;;;;;;;;5003935;28;20180;-92
2022/11/08 00:52:32;;;;;;;4.83;3.90;;;;;;;;;;5014072;28;20221;-92
2022/11/08 00:55:37;;;;;;;6.17;4.13;;;;;;;;;;5003315;28;20525;-91
2022/11/08 00:58:42;;;;;;;6.60;4.07;;;;;;;;;;5003011;28;20181;-92
2022/11/08 01:01:46;;;;;;;5.10;3.93;;;;;;;;;;5014009;28;20687;-91
2022/11/08 01:04:50;;;;;;;9.60;4.17;;;;;;;;;;5003010;28;20185;-92
2022/11/08 01:07:54;;;;;;;6.93;4.43;;;;;;;;;;5025504;28;20181;-92
2022/11/08 01:11:05;;;;;;;7.00;4.13;;;;;;;;;;5002925;28;20703;-92
2022/11/08 01:14:10;;;;;;;7.50;4.90;;;;;;;;;;5014243;28;20177;-92
2022/11/08 01:17:14;;;;;;;9.37;4.73;;;;;;;;;;5014899;28;20521;-92
2022/11/08 01:20:18;;;;;;;7.97;4.77;;;;;;;;;;5025361;28;20663;-91
2022/11/08 01:23:23;;;;;;;8.17;4.43;;;;;;;;;;5003441;28;20180;-91
2022/11/08 01:26:28;;;;;;;9.37;4.33;;;;;;;;;;5003237;28;20632;-91
2022/11/08 01:29:32;;;;;;;6.90;4.40;;;;;;;;;;5014331;28;20177;-92
2022/11/08 01:32:36;;;;;;;6.00;3.83;;;;;;;;;;5002269;28;20204;-92
2022/11/08 01:35:45;;;;;;;6.67;3.53;;;;;;;;;;5013465;28;20181;-92
2022/11/08 01:38:49;;;;;;;6.07;3.93;;;;;;;;;;5013905;28;20193;-91
2022/11/08 01:41:53;;;;;;;8.53;3.93;;;;;;;;;;5002083;28;20228;-92
2022/11/08 01:45:05;;;;;;;4.90;3.67;;;;;;;;;;5024905;28;20181;-92
2022/11/08 01:48:10;;;;;;;7.80;4.47;;;;;;;;;;5002428;28;20185;-92
2022/11/08 01:51:19;;;;;;;4.83;3.50;;;;;;;;;;5013133;28;20213;-92
2022/11/08 01:54:33;;;;;;;5.77;3.97;;;;;;;;;;5002474;28;20181;-92
2022/11/08 01:58:02;;;;;;;4.40;3.43;;;;;;;;;;5013129;28;20529;-91
2022/11/08 02:01:07;;;;;;;4.97;3.50;;;;;;;;;;5012642;28;20248;-92
2022/11/08 02:04:14;;;;;;;8.93;3.60;;;;;;;;;;5001926;28;20185;-92
2022/11/08 02:07:18;;;;;;;6.80;3.40;;;;;;;;;;5012732;28;20181;-92
2022/11/08 02:10:25;;;;;;;5.10;3.47;;;;;;;;;;4993181;28;20189;-91
2022/11/08 02:13:31;;;;;;;4.17;3.30;;;;;;;;;;4982280;28;20182;-92
2022/11/08 02:16:37;;;;;;;4.77;3.50;;;;;;;;;;4993219;28;20185;-91
2022/11/08 02:19:46;;;;;;;5.07;3.43;;;;;;;;;;4992819;28;20213;-92
2022/11/08 02:23:23;;;;;;;8.47;3.57;;;;;;;;;;5004030;28;20186;-91
2022/11/08 02:26:31;;;;;;;5.33;3.37;;;;;;;;;;4981548;28;20194;-91
2022/11/08 02:29:35;;;;;;;5.07;3.50;;;;;;;;;;4981937;28;20178;-92
2022/11/08 02:32:40;;;;;;;4.87;3.50;;;;;;;;;;4992503;28;20181;-91
2022/11/08 02:35:48;;;;;;;5.70;3.50;;;;;;;;;;4981685;28;20619;-91
2022/11/08 02:38:56;;;;;;;4.03;2.77;;;;;;;;;;4992967;28;20182;-92
2022/11/08 02:42:01;;;;;;;4.73;3.00;;;;;;;;;;5003858;28;20217;-92
2022/11/08 02:45:06;;;;;;;4.47;2.97;;;;;;;;;;4981266;28;20521;-91
2022/11/08 02:48:11;;;;;;;6.80;3.47;;;;;;;;;;4992272;28;20201;-91
2022/11/08 02:51:15;;;;;;;6.77;3.43;;;;;;;;;;5003674;28;20221;-91
2022/11/08 02:54:19;;;;;;;4.67;3.03;;;;;;;;;;4992851;28;20189;-92
2022/11/08 02:57:23;;;;;;;4.67;3.13;;;;;;;;;;4992980;28;20640;-91
2022/11/08 03:00:28;;;;;;;4.80;3.63;;;;;;;;;;4981713;28;20229;-91
2022/11/08 03:03:32;;;;;;;5.07;3.20;;;;;;;;;;4992957;28;20186;-91
2022/11/08 03:06:36;;;;;;;3.83;3.00;;;;;;;;;;4981861;28;20185;-91
2022/11/08 03:09:40;;;;;;;3.20;2.90;;;;;;;;;;4993093;28;20181;-91
2022/11/08 03:12:44;;;;;;;3.87;2.90;;;;;;;;;;4992341;28;20197;-91
2022/11/08 03:15:48;;;;;;;3.83;2.97;;;;;;;;;;4980845;28;20201;-91
2022/11/08 03:18:52;;;;;;;4.93;3.17;;;;;;;;;;5003304;28;20525;-91
2022/11/08 03:21:57;;;;;;;4.57;3.00;;;;;;;;;;4981518;28;20699;-91
2022/11/08 03:25:02;;;;;;;4.37;2.73;;;;;;;;;;5014665;28;20205;-91
2022/11/08 03:28:08;;;;;;;4.07;2.63;;;;;;;;;;4981361;28;20209;-91
2022/11/08 03:31:12;;;;;;;4.60;2.67;;;;;;;;;;5013703;28;20225;-91
2022/11/08 03:34:16;;;;;;;3.93;2.70;;;;;;;;;;4992569;28;20522;-91
2022/11/08 03:37:21;;;;;;;4.73;2.50;;;;;;;;;;4991753;28;20209;-91
2022/11/08 03:40:26;;;;;;;4.73;2.50;;;;;;;;;;4991543;28;20225;-91
2022/11/08 03:43:31;;;;;;;3.17;2.20;;;;;;;;;;5003032;28;20641;-91
2022/11/08 03:46:35;;;;;;;8.27;3.07;;;;;;;;;;4991781;28;20182;-92
2022/11/08 03:49:39;;;;;;;6.87;2.10;;;;;;;;;;4991624;28;20522;-92
2022/11/08 03:52:46;;;;;;;3.53;2.30;;;;;;;;;;4991591;28;20636;-91
2022/11/08 03:55:50;;;;;;;3.17;2.20;;;;;;;;;;4992091;28;20189;-91
2022/11/08 03:58:54;;;;;;;3.70;2.80;;;;;;;;;;4991181;28;20185;-91
2022/11/08 04:01:58;;;;;;;3.50;2.40;;;;;;;;;;4991751;28;20214;-91
2022/11/08 04:05:03;;;;;;;3.13;2.20;;;;;;;;;;4980354;28;20177;-91
2022/11/08 04:08:08;;;;;;;4.07;2.50;;;;;;;;;;4980126;28;20185;-91
2022/11/08 04:21:21;;;;;;;3.90;2.70;;;;;;;;;;4991599;28;20233;-91
2022/11/08 04:24:25;;;;;;;3.73;2.57;;;;;;;;;;4980196;28;20186;-91
2022/11/08 04:27:29;;;;;;;4.23;2.20;;;;;;;;;;5002194;28;20185;-91
2022/11/08 04:30:34;;;;;;;5.27;2.30;;;;;;;;;;5002418;28;20225;-91
2022/11/08 04:33:38;;;;;;;3.10;2.13;;;;;;;;;;4991649;28;20514;-91
2022/11/08 04:36:42;;;;;;;2.40;1.93;;;;;;;;;;4980354;28;20189;-91
2022/11/08 04:39:46;;;;;;;4.57;2.03;;;;;;;;;;4991370;28;20196;-91
2022/11/08 04:42:51;;;;;;;3.97;1.97;;;;;;;;;;4981182;28;20186;-92
2022/11/08 04:46:03;;;;;;;2.43;2.20;;;;;;;;;;4995737;28;20190;-91
2022/11/08 04:49:07;;;;;;;6.47;2.30;;;;;;;;;;4996058;28;20186;-91
2022/11/08 04:52:11;;;;;;;5.47;2.10;;;;;;;;;;4984301;28;20221;-91
2022/11/08 04:55:15;;;;;;;3.17;2.00;;;;;;;;;;4995735;28;20185;-91
2022/11/08 04:58:20;;;;;;;4.83;2.17;;;;;;;;;;5006583;28;20185;-91
2022/11/08 05:01:27;;;;;;;3.13;2.20;;;;;;;;;;4995463;28;20233;-91
2022/11/08 05:04:31;;;;;;;3.67;2.10;;;;;;;;;;4984201;28;20201;-91
2022/11/08 05:07:35;;;;;;;2.03;1.77;;;;;;;;;;4995328;28;20190;-91
2022/11/08 05:10:39;;;;;;;3.40;2.07;;;;;;;;;;4995207;28;20220;-91
2022/11/08 05:13:44;;;;;;;2.33;2.00;;;;;;;;;;4994905;28;20189;-91
2022/11/08 05:16:48;;;;;;;2.47;2.20;;;;;;;;;;4996004;28;20197;-91
2022/11/08 05:23:24;;;;;;;3.87;2.10;;;;;;;;;;4994267;28;20193;-91
2022/11/08 05:26:29;;;;;;;5.30;2.33;;;;;;;;;;4996179;28;20197;-91
2022/11/08 05:29:34;;;;;;;3.23;2.77;;;;;;;;;;4995381;28;20186;-91
2022/11/08 05:32:41;;;;;;;4.03;2.70;;;;;;;;;;4983994;28;20285;-91
2022/11/08 05:35:49;;;;;;;8.10;2.53;;;;;;;;;;4995020;28;20181;-91
2022/11/08 05:38:54;;;;;;;3.60;2.20;;;;;;;;;;4991751;28;20201;-90
2022/11/08 05:41:58;;;;;;;4.30;2.00;;;;;;;;;;4996370;28;20236;-90
2022/11/08 05:45:02;;;;;;;3.33;2.13;;;;;;;;;;4994209;28;20189;-91
2022/11/08 05:48:07;;;;;;;2.53;2.17;;;;;;;;;;4985510;28;20201;-91
2022/11/08 05:51:12;;;;;;;3.63;1.40;;;;;;;;;;5008741;28;20213;-91
2022/11/08 05:54:16;;;;;;;5.53;2.30;;;;;;;;;;4986660;28;20185;-91
2022/11/08 05:57:21;;;;;;;3.77;2.40;;;;;;;;;;4986477;28;20226;-91
2022/11/08 06:00:25;;;;;;;8.90;3.50;;;;;;;;;;4986220;28;20181;-91
2022/11/08 06:03:29;;;;;;;6.97;3.50;;;;;;;;;;5002849;28;20201;-91
2022/11/08 06:06:34;;;;;;;10.20;5.30;;;;;;;;;;5001848;28;20185;-91
2022/11/08 06:09:39;;;;;;;7.07;3.90;;;;;;;;;;5002497;28;20190;-91
2022/11/08 06:12:43;;;;;;;4.57;3.40;;;;;;;;;;5014161;28;20182;-91
2022/11/08 06:15:47;;;;;;;4.27;3.10;;;;;;;;;;5013099;28;20208;-91
2022/11/08 06:18:51;;;;;;;8.20;3.93;;;;;;;;;;5011931;28;20201;-91
2022/11/08 06:21:55;;;;;;;7.63;3.70;;;;;;;;;;5000190;28;20565;-91
2022/11/08 06:25:01;;;;;;;7.70;3.73;;;;;;;;;;5000099;28;20174;-91
2022/11/08 06:28:05;;;;;;;6.30;3.30;;;;;;;;;;4989449;28;20182;-91
2022/11/08 06:31:09;;;;;;;7.50;4.47;;;;;;;;;;4988046;28;20229;-91
2022/11/08 06:34:13;;;;;;;8.97;4.30;;;;;;;;;;4988875;28;20181;-91
2022/11/08 06:37:18;;;;;;;6.03;4.30;;;;;;;;;;4988639;28;20609;-91
2022/11/08 06:40:22;;;;;;;12.43;6.30;;;;;;;;;;4998571;28;20201;-92
2022/11/08 06:43:26;;;;;;;13.47;6.33;;;;;;;;;;4987530;28;20185;-92
2022/11/08 06:46:31;;;;;;;8.80;4.70;;;;;;;;;;4987087;28;20186;-92
2022/11/08 06:49:36;;;;;;;6.40;4.27;;;;;;;;;;4986627;28;20189;-92
2022/11/08 06:52:41;;;;;;;5.50;3.90;;;;;;;;;;5007872;28;20182;-92
2022/11/08 06:55:45;;;;;;;8.50;5.10;;;;;;;;;;4996356;28;20526;-91
2022/11/08 06:58:51;;;;;;;7.70;4.50;;;;;;;;;;4985831;28;20178;-92
2022/11/08 07:01:56;;;;;;;9.83;5.23;;;;;;;;;;4995994;28;20229;-92
2022/11/08 07:05:00;;;;;;;11.03;5.57;;;;;;;;;;4997928;28;20204;-92
2022/11/08 07:08:04;;;;;;;9.13;4.90;;;;;;;;;;5001221;28;20296;-92
2022/11/08 07:11:09;;;;;;;21.50;10.80;;;;;;;;;;4997101;28;20220;-91
2022/11/08 07:14:13;;;;;;;21.33;10.33;;;;;;;;;;4993477;28;20189;-91
2022/11/08 07:17:17;;;;;;;15.80;9.20;;;;;;;;;;4982316;28;20548;-91
2022/11/08 07:20:22;;;;;;;22.73;11.10;;;;;;;;;;4989816;28;20224;-92
2022/11/08 07:23:26;;;;;;;19.03;10.50;;;;;;;;;;4993224;28;20206;-92
2022/11/08 07:26:30;;;;;;;16.93;8.80;;;;;;;;;;5003295;28;20197;-91
2022/11/08 07:29:34;;;;;;;15.43;8.33;;;;;;;;;;4993396;28;20193;-92
2022/11/08 07:32:39;;;;;;;14.60;7.10;;;;;;;;;;4983389;28;20189;-91
2022/11/08 07:35:45;;;;;;;15.53;6.20;;;;;;;;;;4982162;28;20185;-91
2022/11/08 07:38:50;;;;;;;8.17;5.67;;;;;;;;;;4993201;28;20181;-91
2022/11/08 07:41:54;;;;;;;11.90;5.53;;;;;;;;;;4992165;28;20233;-91
2022/11/08 07:44:59;;;;;;;13.07;6.73;;;;;;;;;;4982098;28;20185;-91
2022/11/08 07:48:06;;;;;;;7.10;4.83;;;;;;;;;;4992910;28;20185;-91
2022/11/08 07:51:11;;;;;;;10.20;4.63;;;;;;;;;;4981361;28;20221;-91
2022/11/08 07:54:18;;;;;;;5.97;3.13;;;;;;;;;;4970428;28;20209;-90
2022/11/08 07:57:38;;;;;;;3.97;2.43;;;;;;;;;;4996551;28;20182;-91
2022/11/08 08:00:45;;;;;;;4.93;2.40;;;;;;;;;;4981644;28;20225;-91
2022/11/08 08:03:50;;;;;;;4.17;2.43;;;;;;;;;;4986762;28;20186;-90
2022/11/08 08:07:05;;;;;;;6.57;2.70;;;;;;;;;;5004626;28;20569;-90
2022/11/08 08:10:14;;;;;;;2.87;2.30;;;;;;;;;;5003003;28;20201;-91
2022/11/08 08:13:21;;;;;;;5.47;2.43;;;;;;;;;;4992959;28;20533;-91
2022/11/08 08:16:30;;;;;;;5.37;2.63;;;;;;;;;;4982035;28;20680;-91
2022/11/08 08:19:53;;;;;;;5.10;2.10;;;;;;;;;;5009746;28;20190;-91
2022/11/08 08:23:00;;;;;;;2.20;1.70;;;;;;;;;;4996857;28;20209;-91
2022/11/08 08:26:06;;;;;;;2.30;1.80;;;;;;;;;;4995529;28;20197;-91
2022/11/08 08:29:13;;;;;;;3.73;1.90;;;;;;;;;;4984776;28;20205;-91
2022/11/08 08:33:07;;;;;;;5.33;2.10;;;;;;;;;;5003917;28;20224;-91
2022/11/08 08:36:27;;;;;;;2.43;1.80;;;;;;;;;;5008967;28;20205;-91
2022/11/08 08:39:48;;;;;;;3.03;2.00;;;;;;;;;;4999656;28;20205;-90
2022/11/08 08:42:56;;;;;;;2.90;1.80;;;;;;;;;;5021003;28;20217;-91
2022/11/08 08:46:02;;;;;;;3.33;1.80;;;;;;;;;;5006160;28;20676;-91
2022/11/08 08:49:11;;;;;;;3.60;2.13;;;;;;;;;;4981506;28;20721;-91
2022/11/08 08:52:21;;;;;;;2.47;1.90;;;;;;;;;;4991746;28;20228;-91
2022/11/08 08:55:26;;;;;;;2.70;2.23;;;;;;;;;;5014843;28;20200;-91
2022/11/08 08:58:44;;;;;;;2.87;1.80;;;;;;;;;;5028316;28;20668;-91
2022/11/08 09:02:10;;;;;;;3.93;2.13;;;;;;;;;;5027440;28;20225;-91
2022/11/08 09:05:16;;;;;;;2.47;1.80;;;;;;;;;;4984504;28;20201;-91
2022/11/08 09:08:25;;;;;;;4.47;2.03;;;;;;;;;;4991199;28;20212;-92
2022/11/08 09:11:29;;;;;;;3.33;1.80;;;;;;;;;;5014568;28;20217;-91
2022/11/08 09:14:33;;;;;;;2.87;1.67;;;;;;;;;;4995144;28;20185;-92
2022/11/08 09:17:37;;;;;;;2.30;1.80;;;;;;;;;;4988059;28;20197;-92
2022/11/08 09:20:42;;;;;;;3.17;2.07;;;;;;;;;;5003353;28;20683;-92
2022/11/08 09:23:47;;;;;;;5.37;2.30;;;;;;;;;;5013260;28;20181;-91
2022/11/08 09:26:51;;;;;;;3.00;2.30;;;;;;;;;;5014491;28;20193;-92
2022/11/08 09:29:55;;;;;;;2.13;1.90;;;;;;;;;;4995410;28;20208;-89
2022/11/08 09:32:59;;;;;;;2.80;2.10;;;;;;;;;;4989653;28;20209;-91
2022/11/08 09:36:05;;;;;;;6.10;2.13;;;;;;;;;;4983620;28;20541;-92
2022/11/08 09:39:09;;;;;;;3.20;1.80;;;;;;;;;;4983412;28;20186;-92
2022/11/08 09:42:32;;;;;;;2.33;1.80;;;;;;;;;;4992041;28;20228;-91
2022/11/08 09:45:44;;;;;;;2.00;1.67;;;;;;;;;;5013919;28;20189;-89
2022/11/08 09:48:50;;;;;;;2.13;1.53;;;;;;;;;;4998827;28;20209;-91
2022/11/08 09:51:57;;;;;;;3.13;1.80;;;;;;;;;;5014307;28;20233;-91
2022/11/08 09:55:11;;;;;;;2.40;1.50;;;;;;;;;;4994151;28;20209;-89
2022/11/08 09:58:34;;;;;;;1.50;1.30;;;;;;;;;;4993848;28;20193;-89
2022/11/08 10:01:38;;;;;;;2.97;1.23;;;;;;;;;;4997224;28;20236;-89
2022/11/08 10:04:48;;;;;;;2.77;1.17;;;;;;;;;;5001939;28;20205;-87
2022/11/08 10:08:05;;;;;;;1.27;1.10;;;;;;;;;;5023946;28;20185;-87
2022/11/08 10:11:09;;;;;;;2.30;1.83;;;;;;;;;;5000659;28;20216;-88
2022/11/08 10:14:29;;;;;;;3.13;1.50;;;;;;;;;;5013367;28;20181;-87
2022/11/08 10:17:48;;;;;;;1.50;1.37;;;;;;;;;;5001429;28;20196;-88
2022/11/08 10:21:02;;;;;;;2.70;1.43;;;;;;;;;;5012898;28;20220;-88
2022/11/08 10:24:36;;;;;;;1.87;1.10;;;;;;;;;;5001676;28;20173;-87
2022/11/08 10:27:42;;;;;;;1.77;1.33;;;;;;;;;;5001595;28;20177;-88
2022/11/08 10:30:51;;;;;;;2.27;1.47;;;;;;;;;;5000972;28;20564;-87
2022/11/08 10:33:58;;;;;;;1.87;1.20;;;;;;;;;;5023719;28;20189;-88
2022/11/08 10:37:05;;;;;;;2.17;1.30;;;;;;;;;;5001348;28;20181;-88
2022/11/08 10:40:34;;;;;;;2.30;1.37;;;;;;;;;;5000669;28;20185;-87
2022/11/08 10:43:45;;;;;;;1.80;1.30;;;;;;;;;;5000762;28;20205;-88
2022/11/08 10:46:56;;;;;;;1.93;1.37;;;;;;;;;;5001207;28;20181;-88
2022/11/08 10:50:10;;;;;;;2.33;1.40;;;;;;;;;;4995855;28;20660;-88
2022/11/08 10:53:23;;;;;;;2.27;1.57;;;;;;;;;;5012278;28;20181;-89
2022/11/08 10:56:28;;;;;;;2.93;1.50;;;;;;;;;;5001077;28;20185;-88
2022/11/08 10:59:32;;;;;;;2.87;1.73;;;;;;;;;;5011759;28;20185;-87
2022/11/08 11:02:36;;;;;;;4.87;1.63;;;;;;;;;;5000926;28;20628;-87
2022/11/08 11:05:53;;;;;;;2.53;1.50;;;;;;;;;;4981825;28;20534;-88
2022/11/08 11:09:03;;;;;;;3.63;1.50;;;;;;;;;;4992653;28;20202;-88
2022/11/08 11:12:08;;;;;;;2.47;1.67;;;;;;;;;;4992373;28;20221;-88
2022/11/08 11:15:15;;;;;;;2.57;1.80;;;;;;;;;;4993210;28;20194;-88
2022/11/08 11:18:31;;;;;;;4.27;1.80;;;;;;;;;;4982000;28;20185;-88
2022/11/08 11:21:42;;;;;;;3.03;1.70;;;;;;;;;;4987162;28;20220;-87
2022/11/08 11:24:50;;;;;;;3.10;1.87;;;;;;;;;;5012153;28;20208;-88
2022/11/08 11:27:57;;;;;;;2.37;1.60;;;;;;;;;;5000286;28;20200;-87
2022/11/08 11:31:15;;;;;;;2.23;1.60;;;;;;;;;;5000307;28;20272;-88
2022/11/08 11:34:34;;;;;;;2.03;1.50;;;;;;;;;;5011040;28;20200;-88
2022/11/08 11:37:45;;;;;;;3.53;2.00;;;;;;;;;;5011553;28;20185;-88
2022/11/08 11:40:52;;;;;;;3.87;1.93;;;;;;;;;;5011388;28;20220;-88
2022/11/08 11:44:17;;;;;;;4.20;1.90;;;;;;;;;;5000346;28;20682;-88
2022/11/08 11:47:55;;;;;;;3.27;2.10;;;;;;;;;;5000288;28;20173;-88
2022/11/08 11:51:00;;;;;;;4.63;1.77;;;;;;;;;;5010727;28;20212;-86
2022/11/08 11:54:06;;;;;;;3.23;1.77;;;;;;;;;;4999434;28;20181;-87
2022/11/08 11:57:31;;;;;;;2.10;1.70;;;;;;;;;;4997288;28;20549;-87
2022/11/08 12:00:39;;;;;;;3.90;1.70;;;;;;;;;;4991340;28;20217;-87
2022/11/08 12:04:04;;;;;;;3.60;1.80;;;;;;;;;;4991574;28;20209;-87
2022/11/08 12:07:24;;;;;;;3.13;1.80;;;;;;;;;;4979974;28;20185;-88
2022/11/08 12:10:57;;;;;;;4.23;1.97;;;;;;;;;;5002363;28;20633;-86
2022/11/08 12:14:20;;;;;;;11.47;2.43;;;;;;;;;;4988203;28;20209;-86
2022/11/08 12:17:46;;;;;;;4.83;1.97;;;;;;;;;;4979848;28;20574;-86
2022/11/08 12:21:06;;;;;;;6.57;3.57;;;;;;;;;;4990754;28;20221;-86
2022/11/08 12:24:27;;;;;;;3.00;2.10;;;;;;;;;;4979740;28;20214;-86
2022/11/08 12:27:52;;;;;;;4.97;2.50;;;;;;;;;;4991323;28;20186;-86
2022/11/08 12:31:19;;;;;;;3.63;2.20;;;;;;;;;;4979681;28;20237;-86
2022/11/08 12:34:49;;;;;;;2.60;1.50;;;;;;;;;;4980570;28;20186;-86
2022/11/08 12:38:10;;;;;;;3.47;2.10;;;;;;;;;;4990802;28;20190;-86
2022/11/08 12:41:52;;;;;;;2.60;1.93;;;;;;;;;;4991543;28;20225;-86
2022/11/08 12:45:31;;;;;;;5.13;2.10;;;;;;;;;;4980669;28;20182;-86
2022/11/08 12:49:09;;;;;;;2.73;1.90;;;;;;;;;;5002793;28;20185;-86
2022/11/08 12:52:35;;;;;;;6.17;2.50;;;;;;;;;;4991652;28;20225;-86
2022/11/08 12:55:41;;;;;;;4.93;1.87;;;;;;;;;;4991089;28;20186;-86
2022/11/08 12:58:48;;;;;;;2.50;1.97;;;;;;;;;;4980535;28;20182;-86
2022/11/08 13:01:55;;;;;;;2.17;1.50;;;;;;;;;;5007218;28;20228;-88
2022/11/08 13:05:06;;;;;;;2.00;1.80;;;;;;;;;;5011663;28;20200;-86
2022/11/08 13:08:21;;;;;;;3.07;2.27;;;;;;;;;;5003408;28;20181;-86
2022/11/08 13:11:41;;;;;;;4.57;2.83;;;;;;;;;;5003384;28;20221;-86
2022/11/08 13:14:45;;;;;;;2.90;2.20;;;;;;;;;;5014889;28;20181;-85
2022/11/08 13:18:12;;;;;;;1.50;1.40;;;;;;;;;;5004451;28;20181;-85
2022/11/08 13:21:38;;;;;;;1.90;1.70;;;;;;;;;;5028829;28;20229;-86
2022/11/08 13:24:42;;;;;;;1.60;1.27;;;;;;;;;;5002559;28;20217;-85
2022/11/08 13:27:47;;;;;;;2.67;1.23;;;;;;;;;;5002925;28;20184;-86
2022/11/08 13:31:00;;;;;;;1.67;1.47;;;;;;;;;;5002993;28;20564;-85
2022/11/08 13:34:21;;;;;;;3.83;1.47;;;;;;;;;;5024654;28;20185;-85
2022/11/08 13:37:50;;;;;;;2.43;1.50;;;;;;;;;;5002293;28;20185;-85
2022/11/08 13:41:12;;;;;;;2.53;1.37;;;;;;;;;;5002216;28;20220;-85
2022/11/08 13:44:53;;;;;;;3.83;1.50;;;;;;;;;;5013950;28;20209;-85
2022/11/08 13:48:00;;;;;;;1.70;1.40;;;;;;;;;;5002867;28;20501;-85
2022/11/08 13:51:24;;;;;;;2.57;1.37;;;;;;;;;;5002788;28;20221;-85
2022/11/08 13:54:46;;;;;;;2.13;1.50;;;;;;;;;;5003816;28;20182;-86
2022/11/08 13:57:59;;;;;;;3.40;1.30;;;;;;;;;;5026123;28;20521;-85
2022/11/08 14:01:08;;;;;;;1.70;1.23;;;;;;;;;;5002744;28;20216;-85
2022/11/08 14:04:33;;;;;;;2.33;1.53;;;;;;;;;;5014629;28;20212;-85
2022/11/08 14:07:49;;;;;;;3.93;1.90;;;;;;;;;;5010684;28;20185;-85
2022/11/08 14:11:23;;;;;;;3.13;1.60;;;;;;;;;;5010246;28;20220;-85
2022/11/08 14:14:40;;;;;;;2.60;1.40;;;;;;;;;;5021258;28;20173;-87
2022/11/08 14:17:49;;;;;;;2.37;1.40;;;;;;;;;;5020609;28;20181;-86
2022/11/08 14:20:55;;;;;;;2.67;2.00;;;;;;;;;;5011080;28;20224;-86
2022/11/08 14:23:58;;;;;;;4.03;1.50;;;;;;;;;;5020367;28;20213;-86
2022/11/08 14:27:03;;;;;;;3.40;2.53;;;;;;;;;;5020050;28;20177;-86
2022/11/08 14:30:19;;;;;;;5.23;4.40;;;;;;;;;;5008481;28;20197;-86
2022/11/08 14:33:26;;;;;;;3.20;2.70;;;;;;;;;;5019392;28;20181;-86
2022/11/08 14:36:31;;;;;;;5.53;3.20;;;;;;;;;;5007974;28;20185;-86
2022/11/08 14:39:36;;;;;;;12.63;5.10;;;;;;;;;;5018388;28;20189;-86
2022/11/08 14:42:43;;;;;;;12.87;5.73;;;;;;;;;;5006737;28;20232;-86
2022/11/08 14:45:48;;;;;;;8.13;4.07;;;;;;;;;;5017653;28;20192;-86
2022/11/08 14:48:54;;;;;;;2.33;1.80;;;;;;;;;;5016940;28;20181;-86
2022/11/08 14:52:24;;;;;;;2.10;1.50;;;;;;;;;;5002786;28;20216;-86
2022/11/08 14:55:28;;;;;;;2.80;2.30;;;;;;;;;;5013749;28;20185;-86
2022/11/08 14:58:32;;;;;;;4.03;2.57;;;;;;;;;;5013318;28;20185;-86
2022/11/08 15:01:37;;;;;;;7.07;3.60;;;;;;;;;;5002601;28;20224;-86
2022/11/08 15:04:41;;;;;;;11.73;4.37;;;;;;;;;;5001606;28;20549;-86
2022/11/08 15:07:50;;;;;;;18.40;4.30;;;;;;;;;;5013509;28;20185;-86
2022/11/08 15:10:59;;;;;;;6.73;2.70;;;;;;;;;;5001022;28;20223;-86
2022/11/08 15:14:09;;;;;;;9.87;6.73;;;;;;;;;;5001033;28;20185;-86
2022/11/08 15:17:37;;;;;;;11.37;5.90;;;;;;;;;;5001025;28;20233;-86
2022/11/08 15:21:04;;;;;;;2.00;1.67;;;;;;;;;;5012303;28;20220;-85
2022/11/08 15:24:15;;;;;;;2.40;1.73;;;;;;;;;;5024544;28;20217;-86
2022/11/08 15:27:23;;;;;;;2.50;1.40;;;;;;;;;;5001378;28;20517;-86
2022/11/08 15:30:26;;;;;;;3.50;1.37;;;;;;;;;;5011636;28;20204;-86
2022/11/08 15:33:37;;;;;;;2.90;1.67;;;;;;;;;;5023161;28;20185;-86
2022/11/08 15:36:41;;;;;;;3.43;1.47;;;;;;;;;;5011721;28;20185;-86
2022/11/08 15:39:45;;;;;;;2.33;1.40;;;;;;;;;;5011670;28;20184;-87
2022/11/08 15:42:50;;;;;;;2.27;1.70;;;;;;;;;;5000805;28;20207;-86
2022/11/08 15:45:56;;;;;;;4.60;1.80;;;;;;;;;;4999909;28;20193;-86
2022/11/08 15:49:01;;;;;;;3.73;2.03;;;;;;;;;;5000140;28;20192;-86
2022/11/08 15:52:05;;;;;;;2.60;1.90;;;;;;;;;;5011378;28;20216;-86
2022/11/08 15:55:21;;;;;;;4.90;2.10;;;;;;;;;;5000551;28;20623;-86
2022/11/08 15:58:32;;;;;;;2.90;1.90;;;;;;;;;;4999823;28;20680;-87
2022/11/08 16:01:36;;;;;;;11.20;8.47;;;;;;;;;;5000146;28;20224;-86
2022/11/08 16:04:40;;;;;;;7.60;3.97;;;;;;;;;;5000854;28;20213;-85
2022/11/08 16:07:45;;;;;;;10.43;4.20;;;;;;;;;;5000385;28;20189;-86
2022/11/08 16:10:51;;;;;;;3.37;2.37;;;;;;;;;;5011450;28;20228;-86
2022/11/08 16:13:55;;;;;;;3.80;2.70;;;;;;;;;;5001215;28;20177;-86
2022/11/08 16:17:00;;;;;;;7.77;3.20;;;;;;;;;;5000683;28;20204;-89
2022/11/08 16:20:36;;;;;;;8.10;3.93;;;;;;;;;;5012048;28;20517;-89
2022/11/08 16:23:41;;;;;;;4.57;2.70;;;;;;;;;;5000167;28;20209;-90
2022/11/08 16:26:49;;;;;;;7.17;2.77;;;;;;;;;;5011546;28;20180;-89
2022/11/08 16:31:17;;;;;;;4.43;3.13;;;;;;;;;;5011224;28;20185;-89
2022/11/08 16:35:37;;;;;;;9.03;5.67;;;;;;;;;;5034157;28;20196;-89
2022/11/08 16:39:31;;;;;;;10.17;6.80;;;;;;;;;;5021770;28;20221;-90
2022/11/08 16:43:26;;;;;;;16.27;11.40;;;;;;;;;;5037875;28;20200;-90
2022/11/08 16:47:17;;;;;;;22.27;13.80;;;;;;;;;;5000756;28;20196;-89
2022/11/08 16:55:37;;;;;;;48.57;29.93;;;;;;;;;;4946486;29;20204;-90
2022/11/08 16:58:42;;;;;;;36.53;22.07;;;;;;;;;;5004030;28;20201;-89
2022/11/08 17:01:47;;;;;;;28.10;17.50;;;;;;;;;;4996313;28;20352;-87
2022/11/08 17:04:51;;;;;;;12.10;8.13;;;;;;;;;;5010741;28;20198;-87
2022/11/08 17:07:55;;;;;;;8.83;5.17;;;;;;;;;;5007960;28;20196;-87
2022/11/08 17:10:59;;;;;;;8.10;4.17;;;;;;;;;;5005759;28;20630;-87
2022/11/08 17:14:04;;;;;;;12.90;5.77;;;;;;;;;;5005893;28;20228;-87
2022/11/08 17:17:11;;;;;;;14.73;8.40;;;;;;;;;;4994566;28;20181;-87
2022/11/08 17:20:18;;;;;;;14.23;8.10;;;;;;;;;;4994764;28;20185;-87
2022/11/08 17:23:23;;;;;;;12.63;7.77;;;;;;;;;;4994909;28;20181;-87
2022/11/08 17:26:27;;;;;;;10.13;7.10;;;;;;;;;;4994954;28;20560;-87
2022/11/08 17:29:31;;;;;;;10.77;7.60;;;;;;;;;;4994333;28;20190;-87
2022/11/08 17:32:35;;;;;;;13.67;9.37;;;;;;;;;;4994476;28;20228;-87
2022/11/08 17:35:40;;;;;;;10.50;7.63;;;;;;;;;;4994232;28;20213;-88
2022/11/08 17:38:44;;;;;;;9.00;6.07;;;;;;;;;;4994146;28;20189;-88
2022/11/08 17:41:48;;;;;;;12.30;7.00;;;;;;;;;;4994006;28;20221;-88
2022/11/08 17:44:55;;;;;;;10.37;6.60;;;;;;;;;;4994182;28;20178;-88
2022/11/08 17:47:59;;;;;;;11.27;7.40;;;;;;;;;;4993824;28;20186;-88
2022/11/08 17:51:03;;;;;;;19.07;11.37;;;;;;;;;;4993405;28;20687;-88
2022/11/08 17:54:07;;;;;;;21.80;11.43;;;;;;;;;;4993301;28;20228;-88
2022/11/08 17:57:12;;;;;;;20.93;11.40;;;;;;;;;;4993760;28;20189;-88
2022/11/08 18:00:16;;;;;;;22.00;11.57;;;;;;;;;;4982111;28;20196;-88
2022/11/08 18:03:21;;;;;;;20.03;8.63;;;;;;;;;;4994187;28;20200;-88
2022/11/08 18:06:26;;;;;;;15.57;8.43;;;;;;;;;;4993687;28;20182;-88
2022/11/08 18:09:30;;;;;;;12.37;7.13;;;;;;;;;;4994005;28;20201;-90
2022/11/08 18:12:34;;;;;;;11.63;6.57;;;;;;;;;;4990962;28;20228;-89
2022/11/08 18:15:39;;;;;;;8.80;5.40;;;;;;;;;;4996753;28;20225;-90
2022/11/08 18:18:45;;;;;;;7.67;4.57;;;;;;;;;;5013625;28;20556;-90
2022/11/08 18:21:49;;;;;;;6.30;4.77;;;;;;;;;;5004757;28;20229;-90
2022/11/08 18:24:53;;;;;;;6.27;3.97;;;;;;;;;;4992832;28;20182;-90
2022/11/08 18:27:57;;;;;;;8.23;4.50;;;;;;;;;;5003902;28;20201;-90
2022/11/08 18:31:06;;;;;;;6.10;4.30;;;;;;;;;;5003385;28;20225;-89
2022/11/08 18:34:11;;;;;;;8.63;4.50;;;;;;;;;;4981715;28;20221;-90
2022/11/08 18:37:15;;;;;;;16.27;7.50;;;;;;;;;;4982109;28;20185;-90
2022/11/08 18:40:19;;;;;;;12.23;5.47;;;;;;;;;;4983042;28;20205;-89
2022/11/08 18:43:23;;;;;;;20.90;6.57;;;;;;;;;;4981160;28;20539;-90
2022/11/08 18:46:32;;;;;;;12.43;5.93;;;;;;;;;;4981228;28;20197;-90
2022/11/08 18:49:36;;;;;;;13.17;6.33;;;;;;;;;;4982109;28;20197;-90
2022/11/08 18:52:44;;;;;;;17.37;5.40;;;;;;;;;;4992565;28;20209;-90
2022/11/08 18:56:19;;;;;;;14.90;5.13;;;;;;;;;;4974535;28;20226;-90
2022/11/08 18:59:24;;;;;;;10.53;5.33;;;;;;;;;;5004576;28;20186;-90
2022/11/08 19:03:13;;;;;;;14.03;5.90;;;;;;;;;;5009815;28;20178;-90
2022/11/08 19:06:18;;;;;;;11.63;5.40;;;;;;;;;;4982132;28;20205;-90
2022/11/08 19:09:22;;;;;;;13.13;4.80;;;;;;;;;;4981200;28;20684;-90
2022/11/08 19:16:35;;;;;;;9.70;4.87;;;;;;;;;;5015363;28;20181;-90
2022/11/08 19:19:40;;;;;;;8.70;4.80;;;;;;;;;;4981762;28;20628;-90
2022/11/08 19:22:44;;;;;;;6.03;4.47;;;;;;;;;;4992340;28;20182;-90
2022/11/08 19:26:00;;;;;;;9.30;5.50;;;;;;;;;;4980862;28;20201;-90
2022/11/08 19:29:04;;;;;;;6.77;4.20;;;;;;;;;;4992761;28;20190;-91